Time;durP1;ratioP1;P1;durP2;ratioP2;P2;SDS_P1;SDS_P2;PMS_P1;PMS_P2;Temp;Humidity;BMP_temperature;BMP_pressure;BME280_temperature;BME280_humidity;BME280_pressure;Samples;Min_cycle;Max_cycle;Signal;HPM_P1;HPM_P2
2022/12/05 00:00:47;;;;;;;;;;;4.30;99.90;;;;;;5072968;28;19924;-80
2022/12/05 00:03:12;;;;;;;;;;;4.20;99.90;;;;;;5072027;28;20363;-80
2022/12/05 00:05:39;;;;;;;;;;;4.30;99.90;;;;;;5071908;28;20335;-80
2022/12/05 00:08:04;;;;;;;;;;;4.20;99.90;;;;;;5054992;28;19954;-80
2022/12/05 00:10:30;;;;;;;;;;;4.30;99.90;;;;;;5072676;28;19931;-80
2022/12/05 00:12:55;;;;;;;;;;;4.30;99.90;;;;;;5071187;28;20089;-81
2022/12/05 00:15:21;;;;;;;;;;;4.30;99.90;;;;;;5072599;28;20401;-80
2022/12/05 00:17:46;;;;;;;;;;;4.30;99.90;;;;;;5055338;28;20400;-80
2022/12/05 00:20:12;;;;;;;;;;;4.40;99.90;;;;;;5072436;28;20397;-80
2022/12/05 00:22:37;;;;;;;;;;;4.40;99.90;;;;;;5069994;28;20333;-80
2022/12/05 00:25:06;;;;;;;;;;;4.40;99.90;;;;;;5072089;28;20031;-80
2022/12/05 00:27:32;;;;;;;;;;;4.40;99.90;;;;;;5055176;28;20003;-80
2022/12/05 00:29:58;;;;;;;;;;;4.40;99.90;;;;;;5072047;28;20019;-80
2022/12/05 00:32:23;;;;;;;;;;;4.50;99.90;;;;;;5070101;28;20133;-80
2022/12/05 00:34:49;;;;;;;;;;;4.40;99.90;;;;;;5072634;28;19929;-80
2022/12/05 00:37:14;;;;;;;;;;;4.50;99.90;;;;;;5055450;28;20294;-79
2022/12/05 00:39:40;;;;;;;;;;;4.50;99.90;;;;;;5071638;28;19971;-80
2022/12/05 00:42:05;;;;;;;;;;;4.50;99.90;;;;;;5069924;28;19928;-80
2022/12/05 00:44:31;;;;;;;;;;;4.70;99.90;;;;;;5071783;28;20183;-80
2022/12/05 00:46:56;;;;;;;;;;;4.50;99.90;;;;;;5057045;28;20332;-80
2022/12/05 00:49:22;;;;;;;;;;;4.50;99.90;;;;;;5069470;28;19924;-80
2022/12/05 00:51:48;;;;;;;;;;;4.50;99.90;;;;;;5072313;28;19928;-80
2022/12/05 00:54:14;;;;;;;;;;;4.50;99.90;;;;;;5071426;28;20316;-80
2022/12/05 00:56:40;;;;;;;;;;;4.50;99.90;;;;;;5090151;28;19925;-80
2022/12/05 00:59:06;;;;;;;;;;;4.50;99.90;;;;;;5069467;28;19947;-80
2022/12/05 01:01:36;;;;;;;;;;;4.60;99.90;;;;;;5072244;28;19986;-80
2022/12/05 01:04:03;;;;;;;;;;;4.50;99.90;;;;;;5071074;28;19960;-80
2022/12/05 01:06:29;;;;;;;;;;;4.60;99.90;;;;;;5059745;28;19924;-80
2022/12/05 01:08:55;;;;;;;;;;;4.50;99.90;;;;;;5067408;28;20001;-80
2022/12/05 01:11:22;;;;;;;;;;;4.60;99.90;;;;;;5071728;28;19925;-80
2022/12/05 01:13:47;;;;;;;;;;;4.60;99.90;;;;;;5068476;28;19929;-79
2022/12/05 01:16:18;;;;;;;;;;;4.60;99.90;;;;;;5061999;28;19925;-80
2022/12/05 01:18:43;;;;;;;;;;;4.60;99.90;;;;;;5065921;28;19973;-80
2022/12/05 01:21:09;;;;;;;;;;;4.70;99.90;;;;;;5071847;28;19924;-81
2022/12/05 01:23:35;;;;;;;;;;;4.70;99.90;;;;;;5070539;28;19924;-80
2022/12/05 01:26:03;;;;;;;;;;;4.80;99.90;;;;;;5071484;28;19925;-80
2022/12/05 01:28:29;;;;;;;;;;;4.80;99.90;;;;;;5054974;28;20439;-80
2022/12/05 01:30:54;;;;;;;;;;;4.80;99.90;;;;;;5071719;28;19925;-80
2022/12/05 01:33:20;;;;;;;;;;;4.80;99.90;;;;;;5070493;28;19924;-80
2022/12/05 01:35:45;;;;;;;;;;;4.80;99.90;;;;;;5070857;28;20263;-80
2022/12/05 01:38:11;;;;;;;;;;;4.90;99.90;;;;;;5054876;28;20295;-80
2022/12/05 01:40:37;;;;;;;;;;;4.90;99.90;;;;;;5071439;28;19980;-80
2022/12/05 01:43:05;;;;;;;;;;;4.90;99.90;;;;;;5070085;28;20393;-80
2022/12/05 01:45:33;;;;;;;;;;;4.90;99.90;;;;;;5070076;28;19924;-81
2022/12/05 01:48:01;;;;;;;;;;;5.00;99.90;;;;;;5053983;28;19925;-80
2022/12/05 01:50:26;;;;;;;;;;;5.00;99.90;;;;;;5071374;28;19928;-80
2022/12/05 01:52:52;;;;;;;;;;;5.00;99.90;;;;;;5102936;28;19932;-80
2022/12/05 01:55:18;;;;;;;;;;;5.00;99.90;;;;;;5071185;28;19924;-80
2022/12/05 01:57:45;;;;;;;;;;;5.00;99.90;;;;;;5054622;28;20378;-81
2022/12/05 02:00:12;;;;;;;;;;;5.10;99.90;;;;;;5103100;28;19924;-81
2022/12/05 02:02:40;;;;;;;;;;;5.10;99.90;;;;;;5070004;28;19947;-79
2022/12/05 02:05:07;;;;;;;;;;;5.10;99.90;;;;;;5070417;28;19930;-80
2022/12/05 02:07:34;;;;;;;;;;;5.00;99.90;;;;;;5054389;28;19925;-80
2022/12/05 02:09:59;;;;;;;;;;;5.00;99.90;;;;;;5070291;28;20366;-80
2022/12/05 02:12:25;;;;;;;;;;;5.10;99.90;;;;;;5069562;28;19931;-80
2022/12/05 02:14:54;;;;;;;;;;;5.10;99.90;;;;;;5070018;28;20333;-80
2022/12/05 02:17:22;;;;;;;;;;;5.00;99.90;;;;;;5054573;28;19928;-81
2022/12/05 02:19:56;;;;;;;;;;;5.10;99.90;;;;;;5070533;28;19931;-80
2022/12/05 02:22:41;;;;;;;;;;;5.10;99.90;;;;;;5070046;28;19925;-80
2022/12/05 02:25:21;;;;;;;;;;;5.00;99.90;;;;;;5069668;28;19972;-80
2022/12/05 02:28:09;;;;;;;;;;;5.00;99.90;;;;;;5054360;28;20267;-80
2022/12/05 02:30:38;;;;;;;;;;;5.00;99.90;;;;;;5069883;28;20389;-80
2022/12/05 02:33:24;;;;;;;;;;;5.00;99.90;;;;;;5068848;28;19928;-81
2022/12/05 02:36:11;;;;;;;;;;;5.00;99.90;;;;;;5062324;28;20405;-80
2022/12/05 02:38:52;;;;;;;;;;;5.00;99.90;;;;;;5061321;28;19948;-80
2022/12/05 02:41:22;;;;;;;;;;;5.00;99.90;;;;;;5069932;28;19975;-80
2022/12/05 02:43:52;;;;;;;;;;;5.00;99.90;;;;;;5069679;28;19974;-80
2022/12/05 02:46:20;;;;;;;;;;;5.00;99.90;;;;;;5059568;28;19978;-80
2022/12/05 02:48:47;;;;;;;;;;;5.00;99.90;;;;;;5079785;28;19963;-79
2022/12/05 02:51:13;;;;;;;;;;;5.00;99.90;;;;;;5070309;28;19925;-80
2022/12/05 02:53:39;;;;;;;;;;;5.00;99.90;;;;;;5069241;28;19934;-80
2022/12/05 02:56:05;;;;;;;;;;;5.00;99.90;;;;;;5070238;28;20031;-80
2022/12/05 02:58:37;;;;;;;;;;;5.00;99.90;;;;;;5053868;28;19925;-79
2022/12/05 03:01:03;;;;;;;;;;;5.00;99.90;;;;;;5069431;28;20366;-80
2022/12/05 03:03:29;;;;;;;;;;;5.00;99.90;;;;;;5069402;28;19931;-80
2022/12/05 03:06:07;;;;;;;;;;;5.00;99.90;;;;;;5069437;28;20365;-80
2022/12/05 03:08:43;;;;;;;;;;;5.00;99.90;;;;;;5057964;28;19964;-80
2022/12/05 03:11:09;;;;;;;;;;;5.00;99.90;;;;;;5068742;28;20386;-80
2022/12/05 03:13:41;;;;;;;;;;;5.00;99.90;;;;;;5101315;28;19978;-81
2022/12/05 03:16:15;;;;;;;;;;;5.00;99.90;;;;;;5064477;28;19985;-80
2022/12/05 03:18:47;;;;;;;;;;;5.00;99.90;;;;;;5097021;28;19925;-80
2022/12/05 03:21:31;;;;;;;;;;;5.00;99.90;;;;;;5069851;28;20400;-79
2022/12/05 03:24:03;;;;;;;;;;;5.00;99.90;;;;;;5067922;28;20371;-80
2022/12/05 03:26:28;;;;;;;;;;;5.00;99.90;;;;;;5056613;28;20247;-81
2022/12/05 03:29:12;;;;;;;;;;;5.00;99.90;;;;;;5065397;28;19975;-80
2022/12/05 03:31:51;;;;;;;;;;;5.00;99.90;;;;;;5068775;28;20460;-80
2022/12/05 03:34:21;;;;;;;;;;;5.00;99.90;;;;;;5069110;28;19924;-79
2022/12/05 03:36:51;;;;;;;;;;;5.00;99.90;;;;;;5034319;28;20363;-80
2022/12/05 03:39:16;;;;;;;;;;;4.90;99.90;;;;;;5049593;28;19925;-79
2022/12/05 03:41:52;;;;;;;;;;;5.00;99.90;;;;;;5052582;28;19979;-79
2022/12/05 03:44:30;;;;;;;;;;;5.00;99.90;;;;;;5051485;28;19925;-79
2022/12/05 03:47:00;;;;;;;;;;;5.00;99.90;;;;;;5036449;28;19932;-81
2022/12/05 03:49:28;;;;;;;;;;;5.00;99.90;;;;;;5052281;28;19925;-80
2022/12/05 03:51:57;;;;;;;;;;;5.00;99.90;;;;;;5058162;28;20451;-79
2022/12/05 03:54:31;;;;;;;;;;;5.00;99.90;;;;;;5072675;28;20252;-79
2022/12/05 03:57:00;;;;;;;;;;;5.00;99.90;;;;;;5057491;28;19971;-80
2022/12/05 03:59:28;;;;;;;;;;;5.00;99.90;;;;;;5104654;28;19951;-79
2022/12/05 04:01:54;;;;;;;;;;;5.00;99.90;;;;;;5073225;28;20279;-80
2022/12/05 04:04:23;;;;;;;;;;;5.00;99.90;;;;;;5072557;28;19925;-80
2022/12/05 04:06:50;;;;;;;;;;;5.10;99.90;;;;;;5057524;28;19964;-80
2022/12/05 04:09:19;;;;;;;;;;;5.00;99.90;;;;;;5070030;28;20026;-80
2022/12/05 04:11:47;;;;;;;;;;;5.00;99.90;;;;;;5056072;28;19924;-80
2022/12/05 04:14:16;;;;;;;;;;;5.00;99.90;;;;;;5070594;28;20360;-80
2022/12/05 04:17:04;;;;;;;;;;;5.00;99.90;;;;;;5073923;28;19924;-80
2022/12/05 04:21:36;;;;;;;;;;;5.00;99.90;;;;;;5070322;28;19924;-80
2022/12/05 04:22:18;;;;;;;;;;;5.40;99.90;;;;;;5070201;28;20314;-80
2022/12/05 04:27:39;;;;;;;;;;;5.00;99.90;;;;;;5056135;28;19978;-80
2022/12/05 04:30:10;;;;;;;;;;;5.00;99.90;;;;;;5071780;28;20442;-79
2022/12/05 04:32:43;;;;;;;;;;;5.00;99.90;;;;;;5071680;28;20329;-80
2022/12/05 04:35:12;;;;;;;;;;;5.00;99.90;;;;;;5072537;28;19985;-79
2022/12/05 04:37:40;;;;;;;;;;;5.00;99.90;;;;;;5056918;28;19977;-80
2022/12/05 04:40:12;;;;;;;;;;;5.00;99.90;;;;;;5070535;28;20286;-79
2022/12/05 04:42:39;;;;;;;;;;;5.00;99.90;;;;;;5070837;28;19968;-80
2022/12/05 04:45:07;;;;;;;;;;;5.00;99.90;;;;;;5072410;28;19933;-80
2022/12/05 04:47:40;;;;;;;;;;;5.00;99.90;;;;;;5052890;28;19958;-81
2022/12/05 04:50:08;;;;;;;;;;;5.00;99.90;;;;;;5071971;28;19947;-79
2022/12/05 04:52:34;;;;;;;;;;;5.00;99.90;;;;;;5069235;28;19924;-80
2022/12/05 04:55:06;;;;;;;;;;;5.20;99.90;;;;;;5072322;28;19925;-79
2022/12/05 04:57:39;;;;;;;;;;;5.00;99.90;;;;;;5055996;28;19939;-79
2022/12/05 05:00:05;;;;;;;;;;;5.00;99.90;;;;;;5072060;28;19928;-79
2022/12/05 05:02:33;;;;;;;;;;;5.00;99.90;;;;;;5071250;28;19924;-80
2022/12/05 05:05:01;;;;;;;;;;;5.20;99.90;;;;;;5071537;28;20449;-79
2022/12/05 05:07:26;;;;;;;;;;;5.20;99.90;;;;;;5055848;28;19928;-80
2022/12/05 05:09:52;;;;;;;;;;;5.10;99.90;;;;;;5071825;28;19970;-79
2022/12/05 05:12:17;;;;;;;;;;;5.10;99.90;;;;;;5070920;28;19968;-79
2022/12/05 05:14:43;;;;;;;;;;;5.00;99.90;;;;;;5071840;28;19931;-79
2022/12/05 05:17:08;;;;;;;;;;;5.10;99.90;;;;;;5055065;28;19924;-80
2022/12/05 05:19:34;;;;;;;;;;;5.10;99.90;;;;;;5071426;28;19933;-79
2022/12/05 05:22:00;;;;;;;;;;;5.10;99.90;;;;;;5071453;28;20390;-80
2022/12/05 05:24:25;;;;;;;;;;;5.10;99.90;;;;;;5070908;28;19924;-80
2022/12/05 05:26:51;;;;;;;;;;;5.00;99.90;;;;;;5056157;28;20294;-80
2022/12/05 05:29:17;;;;;;;;;;;5.10;99.90;;;;;;5085682;28;19967;-80
2022/12/05 05:31:42;;;;;;;;;;;5.00;99.90;;;;;;5071809;28;19924;-79
2022/12/05 05:34:08;;;;;;;;;;;5.00;99.90;;;;;;5070691;28;19928;-79
2022/12/05 05:36:34;;;;;;;;;;;5.00;99.90;;;;;;5057313;28;20021;-79
2022/12/05 05:39:00;;;;;;;;;;;5.10;99.90;;;;;;5069770;28;20252;-79
2022/12/05 05:41:33;;;;;;;;;;;5.00;99.90;;;;;;5071471;28;19924;-79
2022/12/05 05:43:59;;;;;;;;;;;5.00;99.90;;;;;;5070497;28;20015;-79
2022/12/05 05:46:29;;;;;;;;;;;5.00;99.90;;;;;;5074671;28;20016;-80
2022/12/05 05:48:55;;;;;;;;;;;5.00;99.90;;;;;;5066742;28;19924;-80
2022/12/05 05:51:24;;;;;;;;;;;5.00;99.90;;;;;;5069085;28;19932;-80
2022/12/05 05:53:50;;;;;;;;;;;5.00;99.90;;;;;;5068337;28;20496;-80
2022/12/05 05:56:17;;;;;;;;;;;5.00;99.90;;;;;;5060301;28;19924;-81
2022/12/05 05:58:43;;;;;;;;;;;5.00;99.90;;;;;;5065380;28;19932;-79
2022/12/05 06:01:10;;;;;;;;;;;5.10;99.90;;;;;;5070894;28;19929;-80
2022/12/05 06:03:36;;;;;;;;;;;5.00;99.90;;;;;;5067191;28;19931;-79
2022/12/05 06:06:04;;;;;;;;;;;5.10;99.90;;;;;;5067565;28;19932;-80
2022/12/05 06:08:34;;;;;;;;;;;5.00;99.90;;;;;;5047536;28;20402;-79
2022/12/05 06:11:03;;;;;;;;;;;5.00;99.90;;;;;;5083976;28;19928;-79
2022/12/05 06:13:29;;;;;;;;;;;5.20;99.90;;;;;;5063504;28;20318;-80
2022/12/05 06:15:54;;;;;;;;;;;5.00;99.90;;;;;;5050096;28;19925;-79
2022/12/05 06:18:20;;;;;;;;;;;5.30;99.90;;;;;;5033809;28;19992;-79
2022/12/05 06:20:52;;;;;;;;;;;5.20;99.90;;;;;;5078463;28;19929;-79
2022/12/05 06:23:18;;;;;;;;;;;5.00;99.90;;;;;;5069859;28;19974;-80
2022/12/05 06:25:50;;;;;;;;;;;5.00;99.90;;;;;;5070754;28;19929;-79
2022/12/05 06:28:16;;;;;;;;;;;5.00;99.90;;;;;;5069317;28;20294;-80
2022/12/05 06:30:42;;;;;;;;;;;5.00;99.90;;;;;;5086040;28;20386;-80
2022/12/05 06:33:08;;;;;;;;;;;5.00;99.90;;;;;;5069832;28;19935;-79
2022/12/05 06:35:33;;;;;;;;;;;5.00;99.90;;;;;;5070502;28;20302;-79
2022/12/05 06:37:59;;;;;;;;;;;5.00;99.90;;;;;;5055232;28;19931;-79
2022/12/05 06:40:24;;;;;;;;;;;5.00;99.90;;;;;;5070674;28;20325;-80
2022/12/05 06:42:50;;;;;;;;;;;5.00;99.90;;;;;;5069521;28;19928;-79
2022/12/05 06:45:15;;;;;;;;;;;5.10;99.90;;;;;;5070022;28;20223;-79
2022/12/05 06:47:41;;;;;;;;;;;5.00;99.90;;;;;;5052719;28;19924;-79
2022/12/05 06:50:07;;;;;;;;;;;5.10;99.90;;;;;;5069852;28;19932;-80
2022/12/05 06:52:32;;;;;;;;;;;5.10;99.90;;;;;;5069574;28;20397;-80
2022/12/05 06:54:58;;;;;;;;;;;5.10;99.90;;;;;;5070419;28;20019;-79
2022/12/05 06:57:24;;;;;;;;;;;5.10;99.90;;;;;;5053242;28;19932;-80
2022/12/05 06:59:50;;;;;;;;;;;5.30;99.90;;;;;;5085521;28;20354;-79
2022/12/05 07:02:15;;;;;;;;;;;5.10;99.90;;;;;;5069468;28;19987;-79
2022/12/05 07:04:41;;;;;;;;;;;5.10;99.90;;;;;;5070314;28;19946;-79
2022/12/05 07:07:07;;;;;;;;;;;5.20;99.90;;;;;;5054046;28;20290;-78
2022/12/05 07:09:44;;;;;;;;;;;5.30;99.90;;;;;;5069873;28;19924;-80
2022/12/05 07:12:14;;;;;;;;;;;5.10;99.90;;;;;;5069071;28;19925;-79
2022/12/05 07:14:39;;;;;;;;;;;5.10;99.90;;;;;;5070247;28;19971;-79
2022/12/05 07:17:05;;;;;;;;;;;5.10;99.90;;;;;;5057385;28;20013;-79
2022/12/05 07:19:30;;;;;;;;;;;5.30;99.90;;;;;;5073731;28;19928;-80
2022/12/05 07:21:56;;;;;;;;;;;5.10;99.90;;;;;;5073508;28;19932;-80
2022/12/05 07:24:22;;;;;;;;;;;5.10;99.90;;;;;;5069534;28;20481;-79
2022/12/05 07:26:47;;;;;;;;;;;5.10;99.90;;;;;;5051989;28;19928;-79
2022/12/05 07:29:13;;;;;;;;;;;5.10;99.90;;;;;;5066435;28;19928;-79
2022/12/05 07:31:38;;;;;;;;;;;5.10;99.90;;;;;;5067822;28;20010;-80
2022/12/05 07:34:04;;;;;;;;;;;5.20;99.90;;;;;;5066980;28;19932;-79
2022/12/05 07:36:29;;;;;;;;;;;5.20;99.90;;;;;;5056396;28;20313;-79
2022/12/05 07:38:56;;;;;;;;;;;5.30;99.90;;;;;;5064590;28;19934;-80
2022/12/05 07:41:22;;;;;;;;;;;5.20;99.90;;;;;;5068643;28;20139;-80
2022/12/05 07:43:51;;;;;;;;;;;5.10;99.90;;;;;;5068195;28;19964;-79
2022/12/05 07:46:17;;;;;;;;;;;5.20;99.90;;;;;;5058001;28;20294;-81
2022/12/05 07:48:43;;;;;;;;;;;5.20;99.90;;;;;;5062719;28;19963;-80
2022/12/05 07:51:09;;;;;;;;;;;5.20;99.90;;;;;;5068947;28;19932;-80
2022/12/05 07:53:36;;;;;;;;;;;5.20;99.90;;;;;;5067250;28;19928;-80
2022/12/05 07:56:03;;;;;;;;;;;5.40;99.90;;;;;;5069269;28;19928;-80
2022/12/05 07:58:29;;;;;;;;;;;5.30;99.90;;;;;;5053046;28;19931;-79
2022/12/05 08:00:55;;;;;;;;;;;5.30;99.90;;;;;;5069242;28;19928;-79
2022/12/05 08:03:21;;;;;;;;;;;5.20;99.90;;;;;;5062681;28;20919;-79
2022/12/05 08:05:46;;;;;;;;;;;5.50;99.90;;;;;;5067683;28;20041;-79
2022/12/05 08:08:12;;;;;;;;;;;5.30;99.90;;;;;;5049889;28;20011;-80
2022/12/05 08:10:37;;;;;;;;;;;5.30;99.90;;;;;;5068709;28;20416;-80
2022/12/05 08:13:03;;;;;;;;;;;5.30;99.90;;;;;;5067042;28;19925;-80
2022/12/05 08:15:29;;;;;;;;;;;5.30;99.90;;;;;;5057038;28;20125;-80
2022/12/05 08:17:54;;;;;;;;;;;5.30;99.90;;;;;;5031939;28;19932;-82
2022/12/05 08:20:20;;;;;;;;;;;5.20;99.90;;;;;;5048517;28;19928;-81
2022/12/05 08:22:45;;;;;;;;;;;5.30;99.90;;;;;;5047962;28;19924;-81
2022/12/05 08:25:11;;;;;;;;;;;5.30;99.90;;;;;;5046052;28;19932;-80
2022/12/05 08:27:36;;;;;;;;;;;5.30;99.90;;;;;;5029634;28;19971;-81
2022/12/05 08:30:02;;;;;;;;;;;5.30;99.90;;;;;;5047713;28;19933;-81
2022/12/05 08:32:28;;;;;;;;;;;5.30;99.90;;;;;;5046575;28;19932;-80
2022/12/05 08:34:53;;;;;;;;;;;5.30;99.90;;;;;;5048271;28;19935;-81
2022/12/05 08:37:19;;;;;;;;;;;5.30;99.90;;;;;;5032386;28;20412;-81
2022/12/05 08:39:45;;;;;;;;;;;5.30;99.90;;;;;;5047917;28;20939;-82
2022/12/05 08:42:10;;;;;;;;;;;5.30;99.90;;;;;;5047340;28;19929;-81
2022/12/05 08:44:36;;;;;;;;;;;5.50;99.90;;;;;;5048460;28;19928;-82
2022/12/05 08:47:01;;;;;;;;;;;5.30;99.90;;;;;;5031600;28;19940;-81
2022/12/05 08:49:29;;;;;;;;;;;5.30;99.90;;;;;;5043528;28;20297;-81
2022/12/05 08:51:54;;;;;;;;;;;5.30;99.90;;;;;;5048407;28;19938;-80
2022/12/05 08:54:20;;;;;;;;;;;5.30;99.90;;;;;;5046825;28;19939;-82
2022/12/05 08:56:48;;;;;;;;;;;5.30;99.90;;;;;;5032530;28;19933;-80
2022/12/05 08:59:14;;;;;;;;;;;5.30;99.90;;;;;;5046910;28;20394;-79
2022/12/05 09:01:40;;;;;;;;;;;5.30;99.90;;;;;;5049079;28;19986;-78
2022/12/05 09:04:06;;;;;;;;;;;5.30;99.90;;;;;;5046418;28;19939;-80
2022/12/05 09:06:33;;;;;;;;;;;5.30;99.90;;;;;;5034107;28;19932;-80
2022/12/05 09:09:01;;;;;;;;;;;5.30;99.90;;;;;;5045101;28;19967;-80
2022/12/05 09:11:29;;;;;;;;;;;5.30;99.90;;;;;;5047775;28;20049;-81
2022/12/05 09:13:56;;;;;;;;;;;5.30;99.90;;;;;;5047254;28;19978;-81
2022/12/05 09:16:32;;;;;;;;;;;5.30;99.90;;;;;;5038368;28;19972;-80
2022/12/05 09:18:57;;;;;;;;;;;5.30;99.90;;;;;;5041504;28;19943;-81
2022/12/05 09:21:27;;;;;;;;;;;5.40;99.90;;;;;;5048248;28;20305;-80
2022/12/05 09:23:53;;;;;;;;;;;5.20;99.90;;;;;;5045330;28;20243;-80
2022/12/05 09:26:20;;;;;;;;;;;5.30;99.90;;;;;;5036863;28;19932;-81
2022/12/05 09:28:46;;;;;;;;;;;5.30;99.90;;;;;;5040484;28;19936;-81
2022/12/05 09:31:16;;;;;;;;;;;5.30;99.90;;;;;;5045640;28;19932;-81
2022/12/05 09:33:41;;;;;;;;;;;5.40;99.90;;;;;;5044051;28;20358;-81
2022/12/05 09:36:11;;;;;;;;;;;5.30;99.90;;;;;;5043826;28;19935;-82
2022/12/05 09:38:37;;;;;;;;;;;5.40;99.90;;;;;;5038256;28;19929;-81
2022/12/05 09:41:13;;;;;;;;;;;5.40;99.90;;;;;;5047301;28;19932;-80
2022/12/05 09:43:41;;;;;;;;;;;5.40;99.90;;;;;;5047030;28;19929;-80
2022/12/05 09:46:19;;;;;;;;;;;5.40;99.90;;;;;;5042601;28;19929;-81
2022/12/05 09:48:45;;;;;;;;;;;5.40;99.90;;;;;;5041968;28;20070;-81
2022/12/05 09:51:11;;;;;;;;;;;5.40;99.90;;;;;;5047500;28;19928;-80
2022/12/05 09:53:39;;;;;;;;;;;5.40;99.90;;;;;;5045813;28;19975;-81
2022/12/05 09:56:11;;;;;;;;;;;5.40;99.90;;;;;;5049371;28;19932;-80
2022/12/05 09:58:45;;;;;;;;;;;5.40;99.90;;;;;;5041099;28;20396;-80
2022/12/05 10:01:29;;;;;;;;;;;5.40;99.90;;;;;;5050726;28;19930;-80
2022/12/05 10:04:02;;;;;;;;;;;5.40;99.90;;;;;;5048953;28;19970;-80
2022/12/05 10:06:33;;;;;;;;;;;5.50;99.90;;;;;;5037963;28;20448;-80
2022/12/05 10:09:14;;;;;;;;;;;5.40;99.90;;;;;;5047127;28;19943;-80
2022/12/05 10:11:46;;;;;;;;;;;5.40;99.90;;;;;;5044114;28;19928;-80
2022/12/05 10:14:17;;;;;;;;;;;5.40;99.90;;;;;;5046093;28;20031;-81
2022/12/05 10:16:47;;;;;;;;;;;5.40;99.90;;;;;;5028237;28;19933;-82
2022/12/05 10:19:24;;;;;;;;;;;5.40;99.90;;;;;;5042420;28;19938;-81
2022/12/05 10:21:52;;;;;;;;;;;5.40;99.90;;;;;;5041618;28;19947;-81
2022/12/05 10:24:25;;;;;;;;;;;5.60;99.90;;;;;;5040378;28;20308;-81
2022/12/05 10:26:54;;;;;;;;;;;5.40;99.90;;;;;;5031589;28;20344;-80
2022/12/05 10:29:36;;;;;;;;;;;5.40;99.90;;;;;;5046121;28;19937;-81
2022/12/05 10:32:13;;;;;;;;;;;5.40;99.90;;;;;;5046173;28;19966;-81
2022/12/05 10:34:39;;;;;;;;;;;5.40;99.90;;;;;;5045431;28;19972;-81
2022/12/05 10:37:18;;;;;;;;;;;5.40;99.90;;;;;;5048584;28;19970;-81
2022/12/05 10:39:45;;;;;;;;;;;5.40;99.90;;;;;;5048371;28;20019;-80
2022/12/05 10:42:28;;;;;;;;;;;5.40;99.90;;;;;;5046622;28;19940;-80
2022/12/05 10:44:58;;;;;;;;;;;5.40;99.90;;;;;;5047149;28;19994;-80
2022/12/05 10:47:23;;;;;;;;;;;5.40;99.90;;;;;;5030846;28;20290;-81
2022/12/05 10:49:49;;;;;;;;;;;5.40;99.90;;;;;;5047889;28;19932;-80
2022/12/05 10:52:15;;;;;;;;;;;5.40;99.90;;;;;;5046899;28;19968;-80
2022/12/05 10:54:53;;;;;;;;;;;5.30;99.90;;;;;;5045830;28;19937;-80
2022/12/05 10:57:20;;;;;;;;;;;5.30;99.90;;;;;;5031506;28;19941;-81
2022/12/05 10:59:46;;;;;;;;;;;5.30;99.90;;;;;;5046721;28;19928;-81
2022/12/05 11:02:23;;;;;;;;;;;5.30;99.90;;;;;;5047246;28;19932;-81
2022/12/05 11:04:49;;;;;;;;;;;5.30;99.90;;;;;;5047463;28;19924;-80
2022/12/05 11:07:41;;;;;;;;;;;5.30;99.90;;;;;;5032172;28;19928;-81
2022/12/05 11:10:45;;;;;;;;;;;5.30;99.90;;;;;;5043493;28;20435;-80
2022/12/05 11:13:14;;;;;;;;;;;5.30;99.90;;;;;;4986005;28;19932;-81
2022/12/05 11:15:44;;;;;;;;;;;5.30;99.90;;;;;;4984699;28;19933;-81
2022/12/05 11:18:17;;;;;;;;;;;5.30;99.90;;;;;;4990112;28;19933;-81
2022/12/05 11:20:43;;;;;;;;;;;5.30;99.90;;;;;;5048030;28;19932;-80
2022/12/05 11:23:22;;;;;;;;;;;5.30;99.90;;;;;;5047301;28;19933;-81
2022/12/05 11:25:48;;;;;;;;;;;5.30;99.90;;;;;;5048736;28;20378;-80
2022/12/05 11:28:16;;;;;;;;;;;5.30;99.90;;;;;;5032011;28;19932;-80
2022/12/05 11:31:00;;;;;;;;;;;5.30;99.90;;;;;;5049559;28;19959;-80
2022/12/05 11:33:30;;;;;;;;;;;5.30;99.90;;;;;;5047441;28;20027;-80
2022/12/05 11:36:00;;;;;;;;;;;5.30;99.90;;;;;;5049401;28;19978;-81
2022/12/05 11:38:26;;;;;;;;;;;5.30;99.90;;;;;;5036705;28;20332;-81
2022/12/05 11:41:10;;;;;;;;;;;5.30;99.90;;;;;;5061620;28;20386;-81
2022/12/05 11:43:55;;;;;;;;;;;5.30;99.90;;;;;;5043795;28;19968;-80
2022/12/05 11:46:26;;;;;;;;;;;5.40;99.90;;;;;;5035937;28;19970;-80
2022/12/05 11:49:01;;;;;;;;;;;5.30;99.90;;;;;;5057705;28;20330;-80
2022/12/05 11:51:50;;;;;;;;;;;5.30;99.90;;;;;;5047872;28;19964;-80
2022/12/05 11:54:18;;;;;;;;;;;5.30;99.90;;;;;;5044820;28;19939;-80
2022/12/05 11:56:48;;;;;;;;;;;5.30;99.90;;;;;;5031616;28;19958;-81
2022/12/05 11:59:16;;;;;;;;;;;5.30;99.90;;;;;;5077721;28;19991;-81
2022/12/05 12:01:47;;;;;;;;;;;5.30;99.90;;;;;;5046670;28;19939;-81
2022/12/05 12:04:19;;;;;;;;;;;5.30;99.90;;;;;;5048550;28;20414;-80
2022/12/05 12:06:53;;;;;;;;;;;5.30;99.90;;;;;;5049668;28;20035;-81
2022/12/05 12:09:28;;;;;;;;;;;5.30;99.90;;;;;;5047882;28;20711;-80
2022/12/05 12:12:00;;;;;;;;;;;5.30;99.90;;;;;;5050575;28;19932;-80
2022/12/05 12:14:36;;;;;;;;;;;5.30;99.90;;;;;;5049993;28;19939;-80
2022/12/05 12:17:14;;;;;;;;;;;5.30;99.90;;;;;;5034040;28;19933;-81
2022/12/05 12:19:42;;;;;;;;;;;5.20;99.90;;;;;;5045710;28;19936;-79
2022/12/05 12:22:20;;;;;;;;;;;5.20;99.90;;;;;;5049883;28;21047;-81
2022/12/05 12:24:52;;;;;;;;;;;5.20;99.90;;;;;;5051481;28;20360;-81
2022/12/05 12:27:30;;;;;;;;;;;5.20;99.90;;;;;;5036281;28;19970;-80
2022/12/05 12:29:59;;;;;;;;;;;5.10;99.90;;;;;;5050341;28;19932;-80
2022/12/05 12:32:27;;;;;;;;;;;5.20;99.90;;;;;;5050262;28;20027;-80
2022/12/05 12:34:54;;;;;;;;;;;5.20;99.90;;;;;;5050993;28;19928;-79
2022/12/05 12:37:38;;;;;;;;;;;5.10;99.90;;;;;;5037026;28;19948;-79
2022/12/05 12:40:16;;;;;;;;;;;5.10;99.90;;;;;;5052227;28;19985;-80
2022/12/05 12:42:51;;;;;;;;;;;5.20;99.90;;;;;;5050550;28;19933;-80
2022/12/05 12:45:17;;;;;;;;;;;5.10;99.90;;;;;;5050536;28;19984;-80
2022/12/05 12:47:45;;;;;;;;;;;5.20;99.90;;;;;;5034568;28;20421;-80
2022/12/05 12:50:20;;;;;;;;;;;5.20;99.90;;;;;;5051889;28;19932;-81
2022/12/05 12:53:07;;;;;;;;;;;5.20;99.90;;;;;;5049373;28;20322;-79
2022/12/05 12:55:51;;;;;;;;;;;5.20;99.90;;;;;;5049943;28;20034;-80
2022/12/05 12:58:17;;;;;;;;;;;5.20;99.90;;;;;;5032903;28;19943;-80
2022/12/05 13:00:42;;;;;;;;;;;5.20;99.90;;;;;;5048581;28;19928;-80
2022/12/05 13:03:23;;;;;;;;;;;5.20;99.90;;;;;;5048440;28;19932;-80
2022/12/05 13:05:52;;;;;;;;;;;5.20;99.90;;;;;;5049350;28;20387;-79
2022/12/05 13:08:25;;;;;;;;;;;5.20;99.90;;;;;;5032566;28;20302;-80
2022/12/05 13:10:51;;;;;;;;;;;5.20;99.90;;;;;;5050008;28;19996;-80
2022/12/05 13:13:25;;;;;;;;;;;5.30;99.90;;;;;;5048474;28;19940;-80
2022/12/05 13:15:56;;;;;;;;;;;5.30;99.90;;;;;;5048047;28;19932;-79
2022/12/05 13:18:23;;;;;;;;;;;5.30;99.90;;;;;;5033686;28;19932;-81
2022/12/05 13:20:56;;;;;;;;;;;5.30;99.90;;;;;;5049481;28;20548;-79
2022/12/05 13:23:24;;;;;;;;;;;5.30;99.90;;;;;;5047836;28;19975;-81
2022/12/05 13:25:51;;;;;;;;;;;5.30;99.90;;;;;;5048694;28;19932;-79
2022/12/05 13:28:23;;;;;;;;;;;5.40;99.90;;;;;;5032394;28;19951;-80
2022/12/05 13:31:02;;;;;;;;;;;5.20;99.90;;;;;;5049402;28;19937;-80
2022/12/05 13:33:34;;;;;;;;;;;5.30;99.90;;;;;;5048788;28;19932;-80
2022/12/05 13:42:12;;;;;;;;;;;5.30;99.90;;;;;;5046250;28;19924;-80
2022/12/05 13:44:49;;;;;;;;;;;5.30;99.90;;;;;;5047041;28;19932;-79
2022/12/05 13:47:21;;;;;;;;;;;5.20;99.90;;;;;;5047332;28;19933;-82
2022/12/05 13:50:09;;;;;;;;;;;5.20;99.90;;;;;;5048072;28;19974;-81
2022/12/05 13:52:40;;;;;;;;;;;5.20;99.90;;;;;;5041301;28;19932;-80
2022/12/05 13:55:11;;;;;;;;;;;5.20;99.90;;;;;;5047148;28;19932;-80
2022/12/05 13:57:37;;;;;;;;;;;5.20;99.90;;;;;;5032238;28;21085;-79
2022/12/05 14:00:09;;;;;;;;;;;5.20;99.90;;;;;;5047960;28;19994;-79
2022/12/05 14:02:40;;;;;;;;;;;5.20;99.90;;;;;;5047662;28;20279;-80
2022/12/05 14:05:18;;;;;;;;;;;5.20;99.90;;;;;;5044372;28;20469;-79
2022/12/05 14:07:44;;;;;;;;;;;5.10;99.90;;;;;;5029874;28;20804;-81
2022/12/05 14:10:11;;;;;;;;;;;5.40;99.90;;;;;;5046761;28;19935;-80
2022/12/05 14:12:46;;;;;;;;;;;5.10;99.90;;;;;;5044533;28;19932;-81
2022/12/05 14:15:30;;;;;;;;;;;5.10;99.90;;;;;;5047461;28;20385;-78
2022/12/05 14:17:58;;;;;;;;;;;5.10;99.90;;;;;;5031100;28;19936;-81
2022/12/05 14:20:26;;;;;;;;;;;5.10;99.90;;;;;;5047998;28;20206;-82
2022/12/05 14:22:55;;;;;;;;;;;5.10;99.90;;;;;;5047245;28;19932;-79
2022/12/05 14:25:54;;;;;;;;;;;5.10;99.90;;;;;;5048518;28;20061;-82
2022/12/05 14:28:23;;;;;;;;;;;5.10;99.90;;;;;;5022756;28;19943;-80
2022/12/05 14:31:04;;;;;;;;;;;5.00;99.90;;;;;;5047789;28;19932;-80
2022/12/05 14:33:29;;;;;;;;;;;5.10;99.90;;;;;;5046251;28;19932;-80
2022/12/05 14:35:55;;;;;;;;;;;5.00;99.90;;;;;;5048270;28;19928;-79
2022/12/05 14:38:27;;;;;;;;;;;5.00;99.90;;;;;;5032521;28;19928;-80
2022/12/05 14:40:54;;;;;;;;;;;5.00;99.90;;;;;;5046554;28;20301;-80
2022/12/05 14:43:30;;;;;;;;;;;5.10;99.90;;;;;;5049450;28;19970;-79
2022/12/05 14:46:00;;;;;;;;;;;5.00;99.90;;;;;;5081947;28;19963;-79
2022/12/05 14:48:31;;;;;;;;;;;5.00;99.90;;;;;;5032509;28;19959;-79
2022/12/05 14:50:58;;;;;;;;;;;5.00;99.90;;;;;;5048170;28;20382;-79
2022/12/05 14:53:29;;;;;;;;;;;5.00;99.90;;;;;;5047051;28;19940;-80